Time;durP1;ratioP1;P1;durP2;ratioP2;P2;SDS_P1;SDS_P2;PMS_P1;PMS_P2;Temp;Humidity;BMP_temperature;BMP_pressure;BME280_temperature;BME280_humidity;BME280_pressure;Samples;Min_cycle;Max_cycle;Signal;HPM_P1;HPM_P2
2022/07/29 00:01:48;;;;;;;10.55;1.83;;;;;;;;;;5003659;28;20050;-76
2022/07/29 00:04:14;;;;;;;5.60;1.92;;;;;;;;;;5015827;28;20089;-78
2022/07/29 00:06:41;;;;;;;5.25;1.70;;;;;;;;;;5014169;28;20049;-76
2022/07/29 00:09:11;;;;;;;6.07;1.83;;;;;;;;;;5012969;28;20084;-78
2022/07/29 00:11:37;;;;;;;3.92;1.60;;;;;;;;;;5012616;28;20112;-76
2022/07/29 00:14:04;;;;;;;6.75;1.58;;;;;;;;;;4995016;28;20088;-78
2022/07/29 00:16:30;;;;;;;9.00;1.67;;;;;;;;;;5012762;28;20054;-76
2022/07/29 00:18:57;;;;;;;6.05;2.15;;;;;;;;;;5012472;28;20068;-77
2022/07/29 00:21:27;;;;;;;6.22;1.70;;;;;;;;;;5013748;28;20313;-77
2022/07/29 00:23:54;;;;;;;6.45;1.92;;;;;;;;;;5014265;28;20471;-77
2022/07/29 00:26:20;;;;;;;6.40;1.80;;;;;;;;;;5013527;28;20050;-77
2022/07/29 00:28:47;;;;;;;5.85;1.75;;;;;;;;;;5012036;28;20046;-77
2022/07/29 00:31:13;;;;;;;5.82;1.65;;;;;;;;;;4996165;28;20049;-78
2022/07/29 00:33:40;;;;;;;7.32;1.48;;;;;;;;;;5011268;28;20136;-78
2022/07/29 00:36:06;;;;;;;7.82;1.63;;;;;;;;;;5012356;28;20142;-77
2022/07/29 00:38:33;;;;;;;10.00;1.80;;;;;;;;;;5012084;28;20074;-76
2022/07/29 00:40:59;;;;;;;10.25;1.77;;;;;;;;;;5011384;28;20053;-77
2022/07/29 00:43:26;;;;;;;4.72;1.73;;;;;;;;;;5012192;28;20046;-79
2022/07/29 00:45:53;;;;;;;7.00;2.00;;;;;;;;;;5011748;28;20042;-77
2022/07/29 00:48:19;;;;;;;5.55;1.90;;;;;;;;;;5010361;28;20046;-78
2022/07/29 00:50:46;;;;;;;10.05;2.15;;;;;;;;;;5011689;28;20053;-76
2022/07/29 00:53:12;;;;;;;4.90;1.65;;;;;;;;;;5011672;28;20046;-77
2022/07/29 00:55:39;;;;;;;7.80;1.80;;;;;;;;;;5012835;28;20088;-77
2022/07/29 00:58:08;;;;;;;6.40;1.50;;;;;;;;;;5012533;28;20081;-77
2022/07/29 01:00:34;;;;;;;5.78;1.60;;;;;;;;;;5010287;28;20470;-77
2022/07/29 01:03:03;;;;;;;5.47;1.67;;;;;;;;;;5008383;28;20121;-77
2022/07/29 01:05:30;;;;;;;6.28;2.08;;;;;;;;;;5012160;28;20045;-77
2022/07/29 01:08:17;;;;;;;8.27;1.98;;;;;;;;;;5013594;28;20133;-76
2022/07/29 01:10:43;;;;;;;5.22;2.10;;;;;;;;;;5013557;28;20065;-76
2022/07/29 01:13:10;;;;;;;5.70;2.00;;;;;;;;;;5013158;28;20148;-78
2022/07/29 01:15:42;;;;;;;4.07;1.80;;;;;;;;;;5015585;28;20069;-78
2022/07/29 01:18:22;;;;;;;7.82;1.70;;;;;;;;;;5011853;28;20469;-77
2022/07/29 01:21:01;;;;;;;5.82;1.77;;;;;;;;;;5012428;28;20465;-77
2022/07/29 01:23:37;;;;;;;12.30;1.88;;;;;;;;;;5012797;28;20049;-76
2022/07/29 01:26:22;;;;;;;5.90;1.90;;;;;;;;;;5014238;28;20141;-77
2022/07/29 01:28:52;;;;;;;7.15;1.98;;;;;;;;;;5012872;28;20050;-77
2022/07/29 01:31:22;;;;;;;6.35;1.90;;;;;;;;;;5010027;28;20050;-76
2022/07/29 01:33:54;;;;;;;7.20;1.73;;;;;;;;;;5009216;28;20103;-76
2022/07/29 01:36:30;;;;;;;3.50;1.67;;;;;;;;;;4993821;28;20045;-76
2022/07/29 01:39:00;;;;;;;3.17;1.67;;;;;;;;;;5011778;28;20191;-78
2022/07/29 01:41:29;;;;;;;8.70;2.25;;;;;;;;;;5011631;28;20133;-76
2022/07/29 01:44:11;;;;;;;6.60;2.10;;;;;;;;;;5011025;28;20621;-75
2022/07/29 01:46:39;;;;;;;8.88;1.80;;;;;;;;;;5011510;28;20046;-75
2022/07/29 01:49:09;;;;;;;5.82;1.88;;;;;;;;;;5009531;28;20054;-76
2022/07/29 01:51:43;;;;;;;6.07;2.05;;;;;;;;;;5010313;28;20073;-77
2022/07/29 01:54:22;;;;;;;6.07;2.10;;;;;;;;;;5011023;28;20077;-77
2022/07/29 01:56:49;;;;;;;4.85;1.80;;;;;;;;;;5004275;28;20054;-76
2022/07/29 01:59:17;;;;;;;7.97;1.83;;;;;;;;;;5010273;28;20050;-76
2022/07/29 02:01:45;;;;;;;5.43;1.95;;;;;;;;;;5010458;28;20048;-76
2022/07/29 02:04:12;;;;;;;8.18;2.38;;;;;;;;;;5010507;28;20050;-76
2022/07/29 02:06:56;;;;;;;11.48;2.00;;;;;;;;;;5011297;28;20041;-76
2022/07/29 02:09:24;;;;;;;8.98;2.55;;;;;;;;;;5011516;28;20108;-77
2022/07/29 02:11:55;;;;;;;6.95;2.17;;;;;;;;;;5011140;28;20120;-76
2022/07/29 02:14:22;;;;;;;10.98;2.65;;;;;;;;;;5011406;28;20061;-76
2022/07/29 02:16:51;;;;;;;8.18;2.50;;;;;;;;;;5011604;28;20118;-77
2022/07/29 02:19:19;;;;;;;7.28;2.58;;;;;;;;;;5011174;28;20081;-77
2022/07/29 02:21:48;;;;;;;6.60;1.98;;;;;;;;;;5010003;28;20057;-77
2022/07/29 02:24:15;;;;;;;8.65;2.45;;;;;;;;;;5011270;28;20396;-78
2022/07/29 02:26:42;;;;;;;7.40;2.42;;;;;;;;;;5011362;28;20050;-76
2022/07/29 02:29:10;;;;;;;7.78;2.63;;;;;;;;;;4996921;28;20046;-76
2022/07/29 02:31:37;;;;;;;10.80;2.60;;;;;;;;;;5013259;28;20054;-76
2022/07/29 02:34:05;;;;;;;6.30;2.35;;;;;;;;;;4992700;28;20192;-77
2022/07/29 02:36:32;;;;;;;7.20;2.30;;;;;;;;;;5010312;28;20077;-77
2022/07/29 02:39:00;;;;;;;6.00;2.60;;;;;;;;;;5010706;28;20184;-76
2022/07/29 02:41:56;;;;;;;8.73;2.80;;;;;;;;;;5009656;28;20049;-76
2022/07/29 02:44:24;;;;;;;9.90;2.70;;;;;;;;;;4991582;28;20092;-76
2022/07/29 02:46:53;;;;;;;33.47;2.80;;;;;;;;;;4991976;28;20053;-76
2022/07/29 02:49:37;;;;;;;9.52;2.58;;;;;;;;;;4991455;28;20060;-76
2022/07/29 02:52:18;;;;;;;7.80;3.00;;;;;;;;;;5009093;28;20487;-75
2022/07/29 02:54:56;;;;;;;11.90;2.95;;;;;;;;;;5004089;28;20053;-77
2022/07/29 02:57:28;;;;;;;7.18;3.17;;;;;;;;;;5009969;28;20084;-76
2022/07/29 02:59:57;;;;;;;9.65;3.30;;;;;;;;;;5009279;28;20065;-76
2022/07/29 03:02:25;;;;;;;7.90;3.10;;;;;;;;;;5009665;28;20188;-77
2022/07/29 03:04:52;;;;;;;9.55;3.30;;;;;;;;;;5008212;28;20046;-77
2022/07/29 03:07:20;;;;;;;10.52;3.70;;;;;;;;;;5009185;28;20183;-75
2022/07/29 03:09:47;;;;;;;9.60;3.65;;;;;;;;;;5008370;28;20049;-76
2022/07/29 03:12:14;;;;;;;8.77;3.45;;;;;;;;;;5009752;28;20123;-77
2022/07/29 03:14:43;;;;;;;8.32;3.47;;;;;;;;;;5012203;28;20077;-77
2022/07/29 03:17:11;;;;;;;10.30;3.55;;;;;;;;;;5014952;28;20046;-76
2022/07/29 03:19:38;;;;;;;9.50;3.20;;;;;;;;;;5019005;28;20057;-78
2022/07/29 03:22:05;;;;;;;8.18;2.85;;;;;;;;;;5024768;28;20046;-77
2022/07/29 03:24:33;;;;;;;9.52;3.80;;;;;;;;;;5020880;28;20120;-76
2022/07/29 03:26:59;;;;;;;9.40;3.38;;;;;;;;;;5010378;28;20402;-77
2022/07/29 03:29:26;;;;;;;7.20;3.40;;;;;;;;;;5010022;28;20042;-77
2022/07/29 03:32:00;;;;;;;7.35;3.67;;;;;;;;;;5010041;28;20482;-76
2022/07/29 03:34:28;;;;;;;15.85;3.97;;;;;;;;;;5012509;28;20077;-76
2022/07/29 03:36:54;;;;;;;10.25;3.45;;;;;;;;;;5013205;28;20514;-76
2022/07/29 03:39:22;;;;;;;9.18;3.90;;;;;;;;;;5013328;28;20077;-78
2022/07/29 03:41:51;;;;;;;12.93;3.30;;;;;;;;;;5013791;28;20073;-76
2022/07/29 03:44:18;;;;;;;12.07;3.40;;;;;;;;;;4995215;28;20050;-77
2022/07/29 03:46:45;;;;;;;10.38;3.67;;;;;;;;;;5012600;28;20518;-77
2022/07/29 03:49:14;;;;;;;16.73;3.97;;;;;;;;;;4994114;28;20053;-76
2022/07/29 03:51:41;;;;;;;8.98;3.70;;;;;;;;;;5012610;28;20071;-76
2022/07/29 03:54:07;;;;;;;10.43;4.10;;;;;;;;;;5013179;28;20128;-76
2022/07/29 03:56:39;;;;;;;10.18;4.32;;;;;;;;;;5013100;28;20057;-77
2022/07/29 03:59:06;;;;;;;11.65;4.28;;;;;;;;;;5013254;28;20153;-77
2022/07/29 04:01:33;;;;;;;9.13;4.20;;;;;;;;;;5012102;28;20115;-77
2022/07/29 04:04:01;;;;;;;10.32;4.07;;;;;;;;;;5010709;28;20041;-77
2022/07/29 04:06:27;;;;;;;12.00;4.63;;;;;;;;;;5012318;28;20058;-77
2022/07/29 04:08:54;;;;;;;13.07;4.70;;;;;;;;;;5012919;28;20129;-76
2022/07/29 04:11:20;;;;;;;20.13;4.90;;;;;;;;;;5011864;28;20046;-77
2022/07/29 04:13:47;;;;;;;11.95;4.90;;;;;;;;;;5012802;28;20050;-77
2022/07/29 04:16:13;;;;;;;10.32;4.20;;;;;;;;;;5015869;28;20125;-75
2022/07/29 04:18:40;;;;;;;12.13;4.55;;;;;;;;;;5028184;28;20049;-75
2022/07/29 04:21:06;;;;;;;10.18;4.53;;;;;;;;;;5014287;28;20104;-76
2022/07/29 04:23:33;;;;;;;10.82;4.43;;;;;;;;;;5029680;28;20312;-78
2022/07/29 04:26:21;;;;;;;13.67;4.73;;;;;;;;;;5033789;28;20078;-77
2022/07/29 04:28:47;;;;;;;14.05;4.93;;;;;;;;;;5028692;28;20081;-77
2022/07/29 04:31:13;;;;;;;11.57;4.72;;;;;;;;;;5024670;28;20096;-77
2022/07/29 04:33:40;;;;;;;13.98;4.43;;;;;;;;;;5022665;28;20049;-77
2022/07/29 04:36:07;;;;;;;14.45;4.93;;;;;;;;;;5004984;28;20046;-75
2022/07/29 04:38:56;;;;;;;13.32;5.00;;;;;;;;;;5023926;28;20054;-77
2022/07/29 04:41:22;;;;;;;11.93;4.95;;;;;;;;;;5014434;28;20058;-76
2022/07/29 04:44:00;;;;;;;11.40;4.60;;;;;;;;;;4996876;28;20042;-78
2022/07/29 04:46:27;;;;;;;11.75;4.85;;;;;;;;;;5014659;28;20065;-76
2022/07/29 04:48:53;;;;;;;14.75;4.68;;;;;;;;;;5009654;28;20125;-76
2022/07/29 04:51:20;;;;;;;10.55;4.55;;;;;;;;;;5010406;28;20053;-77
2022/07/29 04:53:46;;;;;;;8.75;4.60;;;;;;;;;;5011805;28;20107;-78
2022/07/29 04:56:14;;;;;;;11.40;4.63;;;;;;;;;;5012021;28;20049;-78
2022/07/29 04:58:40;;;;;;;14.32;4.85;;;;;;;;;;5011014;28;20087;-77
2022/07/29 05:01:06;;;;;;;13.13;4.63;;;;;;;;;;5011304;28;20115;-76
2022/07/29 05:03:33;;;;;;;12.38;5.00;;;;;;;;;;5009525;28;20479;-77
2022/07/29 05:05:59;;;;;;;11.55;4.90;;;;;;;;;;5011427;28;20124;-75
2022/07/29 05:08:26;;;;;;;18.92;5.10;;;;;;;;;;5013563;28;20184;-77
2022/07/29 05:10:52;;;;;;;16.55;4.68;;;;;;;;;;5015312;28;20082;-76
2022/07/29 05:13:22;;;;;;;12.55;4.72;;;;;;;;;;5012575;28;20046;-76
2022/07/29 05:15:49;;;;;;;12.25;4.53;;;;;;;;;;5012055;28;20085;-76
2022/07/29 05:18:16;;;;;;;16.58;4.95;;;;;;;;;;5010252;28;20565;-77
2022/07/29 05:20:42;;;;;;;9.45;4.18;;;;;;;;;;5008501;28;20052;-76
2022/07/29 05:23:12;;;;;;;11.57;4.55;;;;;;;;;;5010391;28;20432;-76
2022/07/29 05:25:38;;;;;;;12.95;4.60;;;;;;;;;;5010886;28;20052;-75
2022/07/29 05:28:11;;;;;;;11.57;4.60;;;;;;;;;;5010612;28;20542;-76
2022/07/29 05:30:37;;;;;;;14.57;4.43;;;;;;;;;;5010514;28;20580;-77
2022/07/29 05:33:04;;;;;;;11.43;3.95;;;;;;;;;;5008885;28;20115;-77
2022/07/29 05:35:30;;;;;;;12.63;4.28;;;;;;;;;;5010819;28;20050;-77
2022/07/29 05:38:00;;;;;;;10.52;4.28;;;;;;;;;;5011037;28;20144;-77
2022/07/29 05:40:26;;;;;;;8.27;4.03;;;;;;;;;;5010880;28;20136;-76
2022/07/29 05:42:52;;;;;;;15.88;4.00;;;;;;;;;;5009968;28;20145;-77
2022/07/29 05:45:19;;;;;;;16.00;4.40;;;;;;;;;;5010940;28;20415;-79
2022/07/29 05:47:45;;;;;;;16.48;4.15;;;;;;;;;;5008820;28;20565;-77
2022/07/29 05:50:12;;;;;;;9.68;3.65;;;;;;;;;;4999637;28;20505;-76
2022/07/29 05:52:39;;;;;;;11.00;3.80;;;;;;;;;;5006010;28;20112;-76
2022/07/29 05:55:05;;;;;;;9.98;3.50;;;;;;;;;;4997158;28;20100;-77
2022/07/29 05:57:32;;;;;;;8.93;4.05;;;;;;;;;;5007584;28;20116;-77
2022/07/29 05:59:58;;;;;;;8.30;3.42;;;;;;;;;;5007065;28;20111;-78
2022/07/29 06:02:25;;;;;;;11.43;4.15;;;;;;;;;;5005405;28;20069;-77
2022/07/29 06:04:51;;;;;;;9.55;4.07;;;;;;;;;;4988187;28;20054;-78
2022/07/29 06:07:17;;;;;;;9.18;3.85;;;;;;;;;;5007602;28;20450;-77
2022/07/29 06:09:44;;;;;;;17.48;6.38;;;;;;;;;;5006753;28;20057;-76
2022/07/29 06:12:11;;;;;;;14.18;4.20;;;;;;;;;;5002427;28;20455;-77
2022/07/29 06:14:38;;;;;;;9.50;3.58;;;;;;;;;;5005696;28;20096;-77
2022/07/29 06:17:05;;;;;;;8.32;3.42;;;;;;;;;;5006539;28;20445;-78
2022/07/29 06:19:33;;;;;;;10.40;3.40;;;;;;;;;;5011956;28;20049;-80
2022/07/29 06:22:00;;;;;;;19.88;3.95;;;;;;;;;;5005761;28;20108;-77
2022/07/29 06:24:26;;;;;;;7.65;3.05;;;;;;;;;;5005380;28;20354;-76
2022/07/29 06:26:53;;;;;;;11.90;3.15;;;;;;;;;;5006255;28;20053;-77
2022/07/29 06:29:19;;;;;;;9.45;2.92;;;;;;;;;;5001524;28;20053;-77
2022/07/29 06:31:46;;;;;;;7.60;2.90;;;;;;;;;;5000439;28;20072;-77
2022/07/29 06:34:12;;;;;;;13.68;3.20;;;;;;;;;;4995828;28;20112;-77
2022/07/29 06:36:40;;;;;;;13.90;3.67;;;;;;;;;;5003118;28;20082;-76
2022/07/29 06:39:07;;;;;;;6.97;3.20;;;;;;;;;;5004912;28;20501;-75
2022/07/29 06:41:34;;;;;;;10.38;3.28;;;;;;;;;;4998316;28;20050;-77
2022/07/29 06:44:01;;;;;;;14.82;3.42;;;;;;;;;;4986095;28;20056;-77
2022/07/29 06:46:27;;;;;;;9.55;3.35;;;;;;;;;;5006292;28;20050;-77
2022/07/29 06:48:54;;;;;;;12.93;3.22;;;;;;;;;;4997950;28;20046;-77
2022/07/29 06:51:21;;;;;;;9.18;3.38;;;;;;;;;;5016735;28;20699;-76
2022/07/29 06:53:50;;;;;;;9.82;2.95;;;;;;;;;;5004540;28;20049;-77
2022/07/29 06:56:30;;;;;;;8.38;3.20;;;;;;;;;;5004638;28;20168;-75
2022/07/29 06:58:57;;;;;;;10.88;3.10;;;;;;;;;;5003149;28;20104;-78
2022/07/29 07:01:23;;;;;;;12.40;3.40;;;;;;;;;;5003746;28;20130;-77
2022/07/29 07:03:50;;;;;;;14.15;3.35;;;;;;;;;;5001774;28;20046;-77
2022/07/29 07:06:16;;;;;;;9.48;3.38;;;;;;;;;;4984935;28;20136;-77
2022/07/29 07:08:43;;;;;;;9.57;3.03;;;;;;;;;;5006013;28;20057;-78
2022/07/29 07:11:09;;;;;;;15.90;2.90;;;;;;;;;;5006554;28;20100;-78
2022/07/29 07:13:40;;;;;;;10.07;3.05;;;;;;;;;;5005994;28;20054;-76
2022/07/29 07:16:07;;;;;;;9.95;3.05;;;;;;;;;;5004536;28;20196;-77
2022/07/29 07:18:33;;;;;;;14.70;3.42;;;;;;;;;;4999771;28;20177;-77
2022/07/29 07:21:00;;;;;;;10.35;3.00;;;;;;;;;;4987006;28;20053;-79
2022/07/29 07:23:27;;;;;;;8.20;2.75;;;;;;;;;;5004074;28;20065;-78
2022/07/29 07:25:53;;;;;;;10.30;3.35;;;;;;;;;;5005841;28;20123;-78
2022/07/29 07:28:19;;;;;;;9.93;3.13;;;;;;;;;;5004114;28;20560;-79
2022/07/29 07:30:50;;;;;;;8.30;2.97;;;;;;;;;;5001479;28;20574;-77
2022/07/29 07:33:17;;;;;;;16.63;3.42;;;;;;;;;;5003432;28;20060;-77
2022/07/29 07:35:44;;;;;;;13.25;3.30;;;;;;;;;;4982780;28;20575;-78
2022/07/29 07:38:10;;;;;;;15.10;2.90;;;;;;;;;;4968218;28;20112;-77
2022/07/29 07:40:37;;;;;;;12.50;2.60;;;;;;;;;;4985633;28;20613;-77
2022/07/29 07:43:03;;;;;;;14.40;3.22;;;;;;;;;;5002417;28;20390;-76
2022/07/29 07:45:32;;;;;;;10.85;3.10;;;;;;;;;;5005615;28;20089;-77
2022/07/29 07:47:59;;;;;;;13.00;3.25;;;;;;;;;;5003152;28;20081;-76
2022/07/29 07:50:25;;;;;;;12.93;3.20;;;;;;;;;;5004589;28;20049;-75
2022/07/29 07:52:53;;;;;;;9.55;2.58;;;;;;;;;;4986352;28;20061;-78
2022/07/29 07:55:19;;;;;;;6.82;2.65;;;;;;;;;;4993600;28;20135;-77
2022/07/29 07:57:46;;;;;;;9.25;3.20;;;;;;;;;;5004890;28;20132;-76
2022/07/29 08:00:14;;;;;;;13.73;2.83;;;;;;;;;;4988024;28;20058;-76
2022/07/29 08:02:42;;;;;;;12.35;3.10;;;;;;;;;;4985318;28;20502;-77
2022/07/29 08:05:10;;;;;;;12.90;2.90;;;;;;;;;;5003030;28;20577;-77
2022/07/29 08:07:38;;;;;;;11.77;2.67;;;;;;;;;;5003323;28;20351;-76
2022/07/29 08:10:05;;;;;;;9.73;3.13;;;;;;;;;;5005273;28;20510;-76
2022/07/29 08:12:31;;;;;;;8.70;2.90;;;;;;;;;;5005114;28;20092;-77
2022/07/29 08:14:58;;;;;;;9.05;2.60;;;;;;;;;;5004510;28;20485;-77
2022/07/29 08:17:24;;;;;;;9.88;2.50;;;;;;;;;;5005076;28;20157;-77
2022/07/29 08:19:50;;;;;;;8.05;2.85;;;;;;;;;;5001282;28;20554;-79
2022/07/29 08:22:17;;;;;;;7.97;2.58;;;;;;;;;;4985813;28;20367;-77
2022/07/29 08:24:44;;;;;;;5.38;2.60;;;;;;;;;;4997349;28;20100;-78
2022/07/29 08:27:10;;;;;;;7.55;2.83;;;;;;;;;;5005520;28;20088;-78
2022/07/29 08:29:57;;;;;;;7.05;2.70;;;;;;;;;;5004778;28;20506;-78
2022/07/29 08:32:23;;;;;;;10.43;2.72;;;;;;;;;;5002760;28;20054;-78
2022/07/29 08:35:10;;;;;;;7.47;2.75;;;;;;;;;;4991473;28;20060;-78
2022/07/29 08:37:36;;;;;;;5.85;3.00;;;;;;;;;;4989703;28;20078;-78
2022/07/29 08:40:03;;;;;;;10.80;2.67;;;;;;;;;;5002216;28;20326;-78
2022/07/29 08:42:30;;;;;;;9.85;2.95;;;;;;;;;;5003515;28;20057;-77
2022/07/29 08:44:57;;;;;;;6.15;2.90;;;;;;;;;;5003092;28;20134;-78
2022/07/29 08:47:26;;;;;;;8.27;2.80;;;;;;;;;;5004005;28;20050;-79
2022/07/29 08:49:52;;;;;;;5.80;2.50;;;;;;;;;;5004639;28;20054;-78
2022/07/29 08:52:19;;;;;;;9.57;2.42;;;;;;;;;;5004297;28;20137;-77
2022/07/29 08:54:46;;;;;;;17.75;2.40;;;;;;;;;;5005715;28;20105;-78
2022/07/29 08:57:12;;;;;;;13.45;2.80;;;;;;;;;;5003952;28;20526;-77
2022/07/29 08:59:40;;;;;;;10.15;2.90;;;;;;;;;;5005242;28;20054;-77
2022/07/29 09:02:12;;;;;;;6.47;3.08;;;;;;;;;;5002555;28;20304;-78
2022/07/29 09:04:38;;;;;;;10.90;2.78;;;;;;;;;;5003409;28;20081;-78
2022/07/29 09:07:05;;;;;;;6.53;3.05;;;;;;;;;;5003478;28;20084;-77
2022/07/29 09:09:33;;;;;;;13.38;2.55;;;;;;;;;;5007535;28;20073;-78
2022/07/29 09:11:59;;;;;;;12.32;2.70;;;;;;;;;;5004872;28;20096;-77
2022/07/29 09:14:26;;;;;;;10.82;2.60;;;;;;;;;;5004601;28;20065;-78
2022/07/29 09:16:54;;;;;;;6.22;2.65;;;;;;;;;;5002327;28;20054;-78
2022/07/29 09:19:31;;;;;;;13.85;2.95;;;;;;;;;;4989794;28;20077;-77
2022/07/29 09:21:58;;;;;;;11.13;2.72;;;;;;;;;;5002847;28;20584;-78
2022/07/29 09:24:46;;;;;;;10.38;2.70;;;;;;;;;;5007579;28;20056;-78
2022/07/29 09:27:20;;;;;;;8.68;2.30;;;;;;;;;;4995140;28;20089;-79
2022/07/29 09:29:54;;;;;;;8.32;2.80;;;;;;;;;;5006624;28;20404;-77
2022/07/29 09:32:21;;;;;;;8.77;2.53;;;;;;;;;;5007678;28;20141;-78
2022/07/29 09:34:48;;;;;;;12.95;2.65;;;;;;;;;;5004926;28;20522;-78
2022/07/29 09:37:27;;;;;;;7.78;2.65;;;;;;;;;;5006478;28;20129;-78
2022/07/29 09:39:54;;;;;;;11.38;2.85;;;;;;;;;;5007207;28;20561;-78
2022/07/29 09:42:29;;;;;;;8.10;2.45;;;;;;;;;;5006014;28;20108;-77
2022/07/29 09:44:56;;;;;;;11.88;2.60;;;;;;;;;;5009135;28;20100;-77
2022/07/29 09:47:39;;;;;;;11.10;2.50;;;;;;;;;;5006608;28;20081;-78
2022/07/29 09:50:06;;;;;;;7.97;2.50;;;;;;;;;;5008350;28;20066;-77
2022/07/29 09:52:43;;;;;;;9.32;2.60;;;;;;;;;;5009397;28;20054;-77
2022/07/29 09:55:10;;;;;;;6.10;2.65;;;;;;;;;;5008423;28;20193;-79
2022/07/29 09:57:44;;;;;;;10.18;2.53;;;;;;;;;;5011355;28;20057;-78
2022/07/29 10:00:14;;;;;;;8.43;2.20;;;;;;;;;;5009028;28;20136;-78
2022/07/29 10:02:45;;;;;;;7.10;2.60;;;;;;;;;;4991274;28;20073;-79
2022/07/29 10:05:22;;;;;;;6.13;2.53;;;;;;;;;;5010073;28;20050;-78
2022/07/29 10:07:55;;;;;;;8.38;2.80;;;;;;;;;;5010481;28;20582;-79
2022/07/29 10:10:24;;;;;;;10.65;2.95;;;;;;;;;;4996063;28;20057;-80
2022/07/29 10:12:58;;;;;;;4.93;2.33;;;;;;;;;;5017070;28;20042;-79
2022/07/29 10:15:37;;;;;;;4.63;2.40;;;;;;;;;;5022851;28;20062;-77
2022/07/29 10:18:04;;;;;;;9.27;2.40;;;;;;;;;;5009526;28;20131;-79
2022/07/29 10:20:33;;;;;;;12.35;2.50;;;;;;;;;;5007362;28;20137;-76
2022/07/29 10:23:00;;;;;;;10.10;2.60;;;;;;;;;;5008112;28;20470;-79
2022/07/29 10:25:26;;;;;;;7.82;3.35;;;;;;;;;;4990852;28;20050;-79
2022/07/29 10:27:54;;;;;;;9.02;2.63;;;;;;;;;;5012294;28;20132;-78
2022/07/29 10:30:22;;;;;;;7.93;2.40;;;;;;;;;;5008765;28;20081;-77
2022/07/29 10:32:59;;;;;;;13.80;2.53;;;;;;;;;;5009048;28;20491;-77
2022/07/29 10:35:29;;;;;;;7.15;2.50;;;;;;;;;;5007913;28;20100;-78
2022/07/29 10:37:58;;;;;;;6.65;2.50;;;;;;;;;;5007012;28;20093;-77
2022/07/29 10:43:28;;;;;;;4.68;2.05;;;;;;;;;;4989425;28;20054;-79
2022/07/29 10:45:55;;;;;;;;;;;;;;;;;;5011278;28;20049;-79
2022/07/29 10:48:21;;;;;;;6.78;3.17;;;;;;;;;;5010354;28;19969;-78
2022/07/29 10:50:52;;;;;;;5.80;2.70;;;;;;;;;;5011181;28;20492;-78
2022/07/29 10:53:21;;;;;;;7.05;2.08;;;;;;;;;;5003392;28;20061;-77
2022/07/29 10:55:50;;;;;;;7.70;2.45;;;;;;;;;;5007233;28;20061;-79
2022/07/29 10:58:20;;;;;;;7.95;2.50;;;;;;;;;;5004305;28;20049;-78
2022/07/29 11:00:50;;;;;;;3.55;2.17;;;;;;;;;;5006925;28;20523;-78
2022/07/29 11:03:35;;;;;;;6.75;2.60;;;;;;;;;;5004521;28;20077;-79
2022/07/29 11:06:03;;;;;;;5.18;2.20;;;;;;;;;;5007768;28;20053;-78
2022/07/29 11:08:34;;;;;;;9.00;2.58;;;;;;;;;;5007667;28;20057;-78
2022/07/29 11:11:18;;;;;;;9.30;2.53;;;;;;;;;;5006014;28;20045;-78
2022/07/29 11:13:50;;;;;;;5.18;2.30;;;;;;;;;;5008315;28;20715;-78
2022/07/29 11:16:21;;;;;;;5.47;2.20;;;;;;;;;;5004441;28;20089;-77
2022/07/29 11:19:11;;;;;;;6.78;2.28;;;;;;;;;;5003591;28;20058;-77
2022/07/29 11:21:40;;;;;;;5.82;2.38;;;;;;;;;;5005064;28;20131;-77
2022/07/29 11:24:34;;;;;;;4.22;2.20;;;;;;;;;;4983828;28;20229;-77
2022/07/29 11:27:09;;;;;;;6.63;2.50;;;;;;;;;;5006027;28;20046;-77
2022/07/29 11:29:39;;;;;;;7.65;2.45;;;;;;;;;;5000266;28;20077;-77
2022/07/29 11:32:14;;;;;;;9.48;2.60;;;;;;;;;;5005254;28;20045;-78
2022/07/29 11:34:43;;;;;;;3.45;2.25;;;;;;;;;;4998024;28;20552;-77
2022/07/29 11:37:10;;;;;;;4.18;2.30;;;;;;;;;;5003845;28;20092;-78
2022/07/29 11:39:37;;;;;;;4.05;2.70;;;;;;;;;;4996317;28;20049;-76
2022/07/29 11:42:16;;;;;;;5.22;2.20;;;;;;;;;;5005220;28;20053;-78
2022/07/29 11:45:05;;;;;;;4.38;2.28;;;;;;;;;;5004884;28;20104;-77
2022/07/29 11:47:53;;;;;;;4.95;2.20;;;;;;;;;;5003059;28;20188;-78
2022/07/29 11:50:27;;;;;;;3.50;2.17;;;;;;;;;;5006635;28;20245;-76
2022/07/29 11:52:54;;;;;;;4.53;2.67;;;;;;;;;;5003490;28;20050;-77
2022/07/29 11:55:22;;;;;;;5.75;2.42;;;;;;;;;;5009513;28;20296;-77
2022/07/29 11:57:59;;;;;;;9.20;2.55;;;;;;;;;;5008943;28;20362;-78
2022/07/29 12:00:32;;;;;;;11.63;2.42;;;;;;;;;;5009371;28;20054;-78
2022/07/29 12:03:01;;;;;;;7.90;2.20;;;;;;;;;;4990269;28;20075;-77
2022/07/29 12:05:53;;;;;;;7.93;2.40;;;;;;;;;;5017175;28;20049;-78
2022/07/29 12:08:22;;;;;;;5.78;2.30;;;;;;;;;;5014958;28;20050;-78
2022/07/29 12:10:50;;;;;;;5.57;2.58;;;;;;;;;;5017402;28;20048;-78
2022/07/29 12:13:18;;;;;;;6.90;2.30;;;;;;;;;;5023412;28;20065;-81
2022/07/29 12:16:00;;;;;;;8.40;2.40;;;;;;;;;;5020176;28;20447;-80
2022/07/29 12:18:27;;;;;;;4.70;2.25;;;;;;;;;;5022927;28;20064;-79
2022/07/29 12:20:58;;;;;;;6.53;2.60;;;;;;;;;;5021414;28;20145;-80
2022/07/29 12:23:29;;;;;;;6.20;2.60;;;;;;;;;;5023917;28;20062;-79
2022/07/29 12:26:05;;;;;;;7.03;2.70;;;;;;;;;;5025283;28;20428;-79
2022/07/29 12:28:39;;;;;;;3.95;2.30;;;;;;;;;;5024166;28;20046;-79
2022/07/29 12:31:05;;;;;;;6.40;2.40;;;;;;;;;;5026028;28;20045;-79
2022/07/29 12:33:34;;;;;;;4.20;2.40;;;;;;;;;;5020879;28;20050;-79
2022/07/29 12:36:03;;;;;;;9.70;2.40;;;;;;;;;;5023527;28;20050;-80
2022/07/29 12:38:40;;;;;;;4.25;2.33;;;;;;;;;;5026653;28;20041;-79
2022/07/29 12:41:06;;;;;;;4.38;2.35;;;;;;;;;;5027105;28;20065;-80
2022/07/29 12:43:33;;;;;;;6.63;2.45;;;;;;;;;;5022894;28;20045;-79
2022/07/29 12:46:11;;;;;;;5.63;2.08;;;;;;;;;;5015822;28;20045;-78
2022/07/29 12:48:39;;;;;;;3.85;2.20;;;;;;;;;;4993344;28;20457;-79
2022/07/29 12:51:07;;;;;;;4.32;2.50;;;;;;;;;;5010924;28;20092;-79
2022/07/29 12:53:33;;;;;;;5.70;2.20;;;;;;;;;;5016729;28;20046;-81
2022/07/29 12:56:02;;;;;;;3.97;2.30;;;;;;;;;;5019454;28;20122;-79
2022/07/29 12:58:48;;;;;;;9.40;2.45;;;;;;;;;;5017552;28;20042;-79
2022/07/29 13:01:19;;;;;;;5.82;2.30;;;;;;;;;;5020459;28;20526;-80
2022/07/29 13:03:47;;;;;;;5.50;2.10;;;;;;;;;;5021104;28;20566;-78
2022/07/29 13:06:38;;;;;;;4.88;2.28;;;;;;;;;;5020978;28;20065;-78
2022/07/29 13:09:06;;;;;;;7.88;2.72;;;;;;;;;;5001654;28;20140;-79
2022/07/29 13:11:38;;;;;;;7.38;2.50;;;;;;;;;;5023756;28;20093;-79
2022/07/29 13:14:05;;;;;;;5.93;2.40;;;;;;;;;;5022541;28;20054;-79
2022/07/29 13:16:32;;;;;;;6.00;2.20;;;;;;;;;;5004431;28;20080;-80
2022/07/29 13:19:06;;;;;;;6.68;2.47;;;;;;;;;;5021708;28;20068;-80
2022/07/29 13:21:33;;;;;;;10.15;2.45;;;;;;;;;;5015037;28;20057;-79
2022/07/29 13:24:00;;;;;;;6.78;2.70;;;;;;;;;;5020343;28;20049;-79
2022/07/29 13:26:27;;;;;;;7.30;2.10;;;;;;;;;;5022568;28;20046;-79
2022/07/29 13:28:54;;;;;;;6.20;2.35;;;;;;;;;;5017182;28;20050;-78
2022/07/29 13:31:21;;;;;;;9.35;2.50;;;;;;;;;;5026433;28;20136;-79
2022/07/29 13:33:48;;;;;;;6.05;2.63;;;;;;;;;;5025409;28;20042;-79
2022/07/29 13:36:15;;;;;;;5.32;2.60;;;;;;;;;;5027600;28;20298;-79
2022/07/29 13:38:41;;;;;;;13.55;3.30;;;;;;;;;;5023921;28;20053;-80
2022/07/29 13:41:09;;;;;;;11.70;3.50;;;;;;;;;;5024562;28;20058;-80
2022/07/29 13:43:36;;;;;;;10.07;3.28;;;;;;;;;;5025979;28;20128;-80
2022/07/29 13:46:02;;;;;;;8.90;3.67;;;;;;;;;;5025850;28;20050;-79
2022/07/29 13:48:29;;;;;;;10.25;3.85;;;;;;;;;;5024042;28;20104;-80
2022/07/29 13:50:56;;;;;;;7.57;3.75;;;;;;;;;;5022622;28;20073;-79
2022/07/29 13:53:25;;;;;;;7.80;3.90;;;;;;;;;;5022504;28;20513;-79
2022/07/29 13:55:52;;;;;;;8.45;3.80;;;;;;;;;;5023741;28;20085;-79
2022/07/29 13:58:19;;;;;;;6.20;3.80;;;;;;;;;;5015326;28;20053;-79
2022/07/29 14:00:47;;;;;;;8.30;3.40;;;;;;;;;;5022026;28;20033;-81
2022/07/29 14:03:15;;;;;;;5.88;2.97;;;;;;;;;;4993652;28;20328;-80
2022/07/29 14:05:41;;;;;;;6.75;2.85;;;;;;;;;;5002714;28;20073;-79
2022/07/29 14:08:08;;;;;;;5.63;3.10;;;;;;;;;;5019149;28;20729;-79
2022/07/29 14:10:34;;;;;;;9.15;3.30;;;;;;;;;;5023017;28;20308;-79
2022/07/29 14:13:01;;;;;;;5.45;3.28;;;;;;;;;;5022793;28;20054;-78
2022/07/29 14:15:28;;;;;;;5.50;2.75;;;;;;;;;;5025882;28;20045;-80
2022/07/29 14:17:54;;;;;;;5.55;2.72;;;;;;;;;;5022799;28;20050;-81
2022/07/29 14:20:21;;;;;;;5.00;3.03;;;;;;;;;;5007862;28;20157;-80
2022/07/29 14:22:48;;;;;;;5.82;3.15;;;;;;;;;;5023915;28;20038;-79
2022/07/29 14:25:15;;;;;;;4.07;2.80;;;;;;;;;;5008296;28;20052;-80
2022/07/29 14:27:43;;;;;;;9.50;3.00;;;;;;;;;;5026763;28;20045;-79
2022/07/29 14:30:10;;;;;;;5.60;2.88;;;;;;;;;;5024806;28;20046;-81
2022/07/29 14:32:36;;;;;;;7.03;2.80;;;;;;;;;;5023614;28;20263;-79
2022/07/29 14:35:03;;;;;;;9.52;2.88;;;;;;;;;;5025534;28;20045;-81
2022/07/29 14:37:30;;;;;;;5.40;3.13;;;;;;;;;;5025725;28;20057;-79
2022/07/29 14:40:06;;;;;;;8.02;3.38;;;;;;;;;;5025263;28;20092;-80
2022/07/29 14:42:33;;;;;;;9.30;2.90;;;;;;;;;;5025316;28;20061;-80
2022/07/29 14:44:59;;;;;;;7.57;3.17;;;;;;;;;;5024625;28;20042;-81
2022/07/29 14:47:26;;;;;;;5.20;3.63;;;;;;;;;;5027535;28;20084;-81
2022/07/29 14:49:53;;;;;;;6.57;3.72;;;;;;;;;;5022875;28;20129;-79
2022/07/29 14:52:19;;;;;;;9.80;3.78;;;;;;;;;;5023093;28;20107;-79
2022/07/29 14:54:45;;;;;;;10.88;4.03;;;;;;;;;;5026834;28;20045;-82